• Join FlightAware (Why Join?)
  • Login
  • US Flag 
07:33PM EDT


 

Airport Tracker/Info


-or-


 

Live Flight TrackerFlight Track Log ✈ EGF3406 ✈ 21-Apr-2013 ✈ KDFW - KFSM

Flight Track Log - Related Links

Times and Time Zones

All times are in EDT time to prevent confusion due to time zone crossing. See the EGF3406 flight status page for this flight to view local times or setup timezone preferences in your user account.

Time Position Orientation Groundspeed Altitude Reporting Facility
EDT Latitude Longitude Course Direction KTS MPH feet Rate Location/Type
06:13PM 32.8500 -97.0333 357° North 184 212 2,400  Level Dallas / Fort Worth TRACON
06:14PM 32.8000 -97.0000 151° Southeast 205 236 4,900 2,100 Climbing Dallas / Fort Worth TRACON
06:15PM 32.8239 -96.8052 10° North  Level FlightAware Approximate
06:15PM 32.7667 -96.9500 128° Southeast 257 296 6,600  Level Dallas / Fort Worth TRACON
06:16PM 32.9371 -96.8000 North  Level FlightAware Approximate
06:17PM 33.0506 -96.8000 North  Level FlightAware Approximate
06:17PM 32.8636 -96.8792 32° Northeast 300 345 10,000  Level Fort Worth Center
06:18PM 33.1641 -96.8061 357° North  Level FlightAware Approximate
06:18PM 32.9469 -96.8739 North 286 329 11,600  Level Fort Worth Center
06:19PM 33.0472 -96.8633 North 313 360 13,100 1,440 Climbing Fort Worth Center
06:20PM 33.1431 -96.8553 North 334 384 14,500 1,800 Climbing Fort Worth Center
06:21PM 33.2411 -96.8472 North 344 396 16,700 1,740 Climbing Fort Worth Center
06:22PM 33.3331 -96.8367 North 344 396 18,000 1,500 Climbing Fort Worth Center
06:23PM 33.4311 -96.8261 North 349 402 19,700 1,500 Climbing Fort Worth Center
06:24PM 33.5228 -96.7806 23° Northeast 349 402 21,100 1,260 Climbing Fort Worth Center
06:25PM 33.6142 -96.7200 29° Northeast 365 420 22,300 900 Climbing Fort Worth Center
06:26PM 33.7078 -96.6594 28° Northeast 380 437 23,000 300 Climbing Fort Worth Center
06:27PM 33.8097 -96.5936 28° Northeast 397 457 23,000  Level Fort Worth Center
06:28PM 33.9094 -96.5275 29° Northeast 403 464 23,000  Level Fort Worth Center
06:29PM 34.0092 -96.4664 27° Northeast 403 464 23,000  Level Fort Worth Center
06:30PM 34.0922 -96.4103 29° Northeast 403 464 23,000  Level Fort Worth Center
06:31PM 34.1917 -96.3239 36° Northeast 403 464 23,000  Level Fort Worth Center
06:32PM 34.2889 -96.2447 34° Northeast 413 475 23,000  Level Fort Worth Center
06:33PM 34.3883 -96.1628 34° Northeast 419 482 23,000  Level Fort Worth Center
06:34PM 34.4856 -96.0833 34° Northeast 419 482 23,000  Level Fort Worth Center
06:35PM 34.5869 -95.9986 35° Northeast 419 482 23,000 -60 Level Fort Worth Center
06:36PM 34.6839 -95.9186 34° Northeast 424 488 22,900 -540 Descending Fort Worth Center
06:37PM 34.7811 -95.8386 34° Northeast 419 482 22,000 -960 Descending Fort Worth Center
06:38PM 34.8633 -95.7408 44° Northeast 419 482 21,000 -1,020 Descending Fort Worth Center
06:39PM 34.9156 -95.6006 66° East 422 486 20,000 -1,080 Descending Fort Worth Center
06:40PM 34.9594 -95.4731 67° East 422 486 18,900 -1,680 Descending Fort Worth Center
06:41PM 35.0094 -95.3325 66° East 411 473 16,700 -2,400 Descending Fort Worth Center
06:42PM 35.0472 -95.2200 68° East 400 460 14,200 -2,520 Descending Fort Worth Center
06:44PM 35.1127 -95.0119 68° East  Level FlightAware Approximate
06:51PM 35.3333 -94.3667 58° Northeast  Level FlightAware Approximate
06:52PM 35.3366 -94.3674 58° Northeast  Level Estimated
06:53PM 35.3333 -94.3667 58° Northeast  Level FlightAware Approximate
06:54PM 35.3366 -94.3674 58° Northeast  Level Estimated